sensor_id;sensor_type;location;lat;lon;timestamp;temperature;humidity
37412;DHT22;23278;52.110;6.050;2022-12-07T00:01:14;5.30;99.90
37412;DHT22;23278;52.110;6.050;2022-12-07T00:03:42;5.20;99.90
37412;DHT22;23278;52.110;6.050;2022-12-07T00:06:09;5.10;99.90
37412;DHT22;23278;52.110;6.050;2022-12-07T00:08:35;5.00;99.90
37412;DHT22;23278;52.110;6.050;2022-12-07T00:11:09;4.90;99.90
37412;DHT22;23278;52.110;6.050;2022-12-07T00:13:36;4.80;99.90
37412;DHT22;23278;52.110;6.050;2022-12-07T00:16:14;4.70;99.90
37412;DHT22;23278;52.110;6.050;2022-12-07T00:18:40;4.70;99.90
37412;DHT22;23278;52.110;6.050;2022-12-07T00:21:10;4.60;99.90
37412;DHT22;23278;52.110;6.050;2022-12-07T00:23:36;4.60;99.90
37412;DHT22;23278;52.110;6.050;2022-12-07T00:26:10;4.50;99.90
37412;DHT22;23278;52.110;6.050;2022-12-07T00:28:36;4.50;99.90
37412;DHT22;23278;52.110;6.050;2022-12-07T00:31:12;4.50;99.90
37412;DHT22;23278;52.110;6.050;2022-12-07T00:33:39;4.50;99.90
37412;DHT22;23278;52.110;6.050;2022-12-07T00:36:08;4.50;99.90
37412;DHT22;23278;52.110;6.050;2022-12-07T00:38:35;4.40;99.90
37412;DHT22;23278;52.110;6.050;2022-12-07T00:41:04;4.40;99.90
37412;DHT22;23278;52.110;6.050;2022-12-07T00:43:31;4.40;99.90
37412;DHT22;23278;52.110;6.050;2022-12-07T00:45:57;4.30;99.90
37412;DHT22;23278;52.110;6.050;2022-12-07T00:48:23;4.30;99.90
37412;DHT22;23278;52.110;6.050;2022-12-07T00:50:49;4.20;99.90
37412;DHT22;23278;52.110;6.050;2022-12-07T00:53:16;4.20;99.90
37412;DHT22;23278;52.110;6.050;2022-12-07T00:55:43;4.20;99.90
37412;DHT22;23278;52.110;6.050;2022-12-07T00:58:09;4.10;99.90
37412;DHT22;23278;52.110;6.050;2022-12-07T01:00:36;4.10;99.90
37412;DHT22;23278;52.110;6.050;2022-12-07T01:03:04;4.10;99.90
37412;DHT22;23278;52.110;6.050;2022-12-07T01:05:30;4.00;99.90
37412;DHT22;23278;52.110;6.050;2022-12-07T01:07:55;4.00;99.90
37412;DHT22;23278;52.110;6.050;2022-12-07T01:10:21;4.00;99.90
37412;DHT22;23278;52.110;6.050;2022-12-07T01:12:47;4.00;99.90
37412;DHT22;23278;52.110;6.050;2022-12-07T01:15:13;4.00;99.90
37412;DHT22;23278;52.110;6.050;2022-12-07T01:17:39;3.90;99.90
37412;DHT22;23278;52.110;6.050;2022-12-07T01:20:05;3.90;99.90
37412;DHT22;23278;52.110;6.050;2022-12-07T01:22:31;3.90;99.90
37412;DHT22;23278;52.110;6.050;2022-12-07T01:25:01;3.90;99.90
37412;DHT22;23278;52.110;6.050;2022-12-07T01:27:27;3.90;99.90
37412;DHT22;23278;52.110;6.050;2022-12-07T01:29:53;3.80;99.90
37412;DHT22;23278;52.110;6.050;2022-12-07T01:32:19;3.80;99.90
37412;DHT22;23278;52.110;6.050;2022-12-07T01:34:48;3.80;99.90
37412;DHT22;23278;52.110;6.050;2022-12-07T01:37:14;3.80;99.90
37412;DHT22;23278;52.110;6.050;2022-12-07T01:39:40;3.80;99.90
37412;DHT22;23278;52.110;6.050;2022-12-07T01:42:11;3.80;99.90
37412;DHT22;23278;52.110;6.050;2022-12-07T01:47:42;3.80;99.90
37412;DHT22;23278;52.110;6.050;2022-12-07T01:50:09;3.70;99.90
37412;DHT22;23278;52.110;6.050;2022-12-07T01:52:36;3.70;99.90
37412;DHT22;23278;52.110;6.050;2022-12-07T01:55:09;3.70;99.90
37412;DHT22;23278;52.110;6.050;2022-12-07T01:57:39;3.70;99.90
37412;DHT22;23278;52.110;6.050;2022-12-07T02:00:07;3.70;99.90
37412;DHT22;23278;52.110;6.050;2022-12-07T02:02:54;3.60;99.90
37412;DHT22;23278;52.110;6.050;2022-12-07T02:05:23;3.60;99.90
37412;DHT22;23278;52.110;6.050;2022-12-07T02:07:51;3.60;99.90
37412;DHT22;23278;52.110;6.050;2022-12-07T02:10:20;3.60;99.90
37412;DHT22;23278;52.110;6.050;2022-12-07T02:12:49;3.60;99.90
37412;DHT22;23278;52.110;6.050;2022-12-07T02:15:16;3.60;99.90
37412;DHT22;23278;52.110;6.050;2022-12-07T02:20:39;3.60;99.90
37412;DHT22;23278;52.110;6.050;2022-12-07T02:29:25;3.50;99.90
37412;DHT22;23278;52.110;6.050;2022-12-07T02:32:00;3.50;99.90
37412;DHT22;23278;52.110;6.050;2022-12-07T02:37:23;3.50;99.90
37412;DHT22;23278;52.110;6.050;2022-12-07T02:40:04;3.50;99.90
37412;DHT22;23278;52.110;6.050;2022-12-07T02:42:36;3.60;99.90
37412;DHT22;23278;52.110;6.050;2022-12-07T02:45:05;3.70;99.90
37412;DHT22;23278;52.110;6.050;2022-12-07T02:47:32;3.90;99.90
37412;DHT22;23278;52.110;6.050;2022-12-07T02:49:59;4.10;99.90
37412;DHT22;23278;52.110;6.050;2022-12-07T02:52:27;4.10;99.90
37412;DHT22;23278;52.110;6.050;2022-12-07T02:54:53;4.10;99.90
37412;DHT22;23278;52.110;6.050;2022-12-07T03:00:13;4.20;99.90
37412;DHT22;23278;52.110;6.050;2022-12-07T03:03:06;4.30;99.90
37412;DHT22;23278;52.110;6.050;2022-12-07T03:08:31;4.50;99.90
37412;DHT22;23278;52.110;6.050;2022-12-07T03:11:05;4.50;99.90
37412;DHT22;23278;52.110;6.050;2022-12-07T03:16:33;4.60;99.90
37412;DHT22;23278;52.110;6.050;2022-12-07T03:19:03;4.60;99.90
37412;DHT22;23278;52.110;6.050;2022-12-07T03:21:36;4.70;99.90
37412;DHT22;23278;52.110;6.050;2022-12-07T03:24:07;4.70;99.90
37412;DHT22;23278;52.110;6.050;2022-12-07T03:26:37;4.70;99.90
37412;DHT22;23278;52.110;6.050;2022-12-07T03:29:11;4.70;99.90
37412;DHT22;23278;52.110;6.050;2022-12-07T03:31:44;4.80;99.90
37412;DHT22;23278;52.110;6.050;2022-12-07T03:34:18;4.80;99.90
37412;DHT22;23278;52.110;6.050;2022-12-07T03:37:04;4.80;99.90
37412;DHT22;23278;52.110;6.050;2022-12-07T03:39:39;4.90;99.90
37412;DHT22;23278;52.110;6.050;2022-12-07T03:42:08;4.90;99.90
37412;DHT22;23278;52.110;6.050;2022-12-07T03:44:35;5.00;99.90
37412;DHT22;23278;52.110;6.050;2022-12-07T03:47:23;5.00;99.90
37412;DHT22;23278;52.110;6.050;2022-12-07T03:50:21;5.00;99.90
37412;DHT22;23278;52.110;6.050;2022-12-07T03:52:57;5.00;99.90
37412;DHT22;23278;52.110;6.050;2022-12-07T03:55:32;4.90;99.90
37412;DHT22;23278;52.110;6.050;2022-12-07T03:58:03;4.80;99.90
37412;DHT22;23278;52.110;6.050;2022-12-07T04:00:30;4.70;99.90
37412;DHT22;23278;52.110;6.050;2022-12-07T04:02:56;4.60;99.90
37412;DHT22;23278;52.110;6.050;2022-12-07T04:05:22;4.40;99.90
37412;DHT22;23278;52.110;6.050;2022-12-07T04:07:48;4.30;99.90
37412;DHT22;23278;52.110;6.050;2022-12-07T04:10:14;4.20;99.90
37412;DHT22;23278;52.110;6.050;2022-12-07T04:12:40;4.10;99.90
37412;DHT22;23278;52.110;6.050;2022-12-07T04:15:07;4.00;99.90
37412;DHT22;23278;52.110;6.050;2022-12-07T04:17:33;3.90;99.90
37412;DHT22;23278;52.110;6.050;2022-12-07T04:19:59;3.90;99.90
37412;DHT22;23278;52.110;6.050;2022-12-07T04:22:25;3.80;99.90
37412;DHT22;23278;52.110;6.050;2022-12-07T04:24:50;3.80;99.90
37412;DHT22;23278;52.110;6.050;2022-12-07T04:27:16;3.80;99.90
37412;DHT22;23278;52.110;6.050;2022-12-07T04:29:42;3.90;99.90
37412;DHT22;23278;52.110;6.050;2022-12-07T04:32:08;4.00;99.90
37412;DHT22;23278;52.110;6.050;2022-12-07T04:34:34;4.20;99.90
37412;DHT22;23278;52.110;6.050;2022-12-07T04:37:00;4.30;99.90
37412;DHT22;23278;52.110;6.050;2022-12-07T04:39:31;4.40;99.90
37412;DHT22;23278;52.110;6.050;2022-12-07T04:41:58;4.40;99.90
37412;DHT22;23278;52.110;6.050;2022-12-07T04:44:25;4.50;99.90
37412;DHT22;23278;52.110;6.050;2022-12-07T04:46:52;4.60;99.90
37412;DHT22;23278;52.110;6.050;2022-12-07T04:49:19;4.50;99.90
37412;DHT22;23278;52.110;6.050;2022-12-07T04:51:46;4.40;99.90
37412;DHT22;23278;52.110;6.050;2022-12-07T04:54:13;4.30;99.90
37412;DHT22;23278;52.110;6.050;2022-12-07T04:56:39;4.20;99.90
37412;DHT22;23278;52.110;6.050;2022-12-07T04:59:06;4.10;99.90
37412;DHT22;23278;52.110;6.050;2022-12-07T05:01:32;4.00;99.90
37412;DHT22;23278;52.110;6.050;2022-12-07T05:03:58;4.10;99.90
37412;DHT22;23278;52.110;6.050;2022-12-07T05:06:25;4.10;99.90
37412;DHT22;23278;52.110;6.050;2022-12-07T05:08:50;4.10;99.90
37412;DHT22;23278;52.110;6.050;2022-12-07T05:11:16;4.00;99.90
37412;DHT22;23278;52.110;6.050;2022-12-07T05:14:13;4.00;99.90
37412;DHT22;23278;52.110;6.050;2022-12-07T05:16:40;3.90;99.90
37412;DHT22;23278;52.110;6.050;2022-12-07T05:19:07;3.80;99.90
37412;DHT22;23278;52.110;6.050;2022-12-07T05:21:33;3.70;99.90
37412;DHT22;23278;52.110;6.050;2022-12-07T05:23:59;3.70;99.90
37412;DHT22;23278;52.110;6.050;2022-12-07T05:26:25;3.60;99.90
37412;DHT22;23278;52.110;6.050;2022-12-07T05:28:53;3.60;99.90
37412;DHT22;23278;52.110;6.050;2022-12-07T05:31:19;3.50;99.90
37412;DHT22;23278;52.110;6.050;2022-12-07T05:33:45;3.50;99.90
37412;DHT22;23278;52.110;6.050;2022-12-07T05:36:11;3.50;99.90
37412;DHT22;23278;52.110;6.050;2022-12-07T05:38:37;3.50;99.90
37412;DHT22;23278;52.110;6.050;2022-12-07T05:41:05;3.50;99.90
37412;DHT22;23278;52.110;6.050;2022-12-07T05:43:32;3.60;99.90
37412;DHT22;23278;52.110;6.050;2022-12-07T05:45:59;3.80;99.90
37412;DHT22;23278;52.110;6.050;2022-12-07T05:48:25;3.90;99.90
37412;DHT22;23278;52.110;6.050;2022-12-07T05:50:52;4.00;99.90
37412;DHT22;23278;52.110;6.050;2022-12-07T05:53:18;4.10;99.90
37412;DHT22;23278;52.110;6.050;2022-12-07T05:55:44;4.10;99.90
37412;DHT22;23278;52.110;6.050;2022-12-07T05:58:10;4.00;99.90
37412;DHT22;23278;52.110;6.050;2022-12-07T06:00:55;4.00;99.90
37412;DHT22;23278;52.110;6.050;2022-12-07T06:03:21;3.90;99.90
37412;DHT22;23278;52.110;6.050;2022-12-07T06:05:47;3.90;99.90
37412;DHT22;23278;52.110;6.050;2022-12-07T06:08:13;3.90;99.90
37412;DHT22;23278;52.110;6.050;2022-12-07T06:10:41;3.80;99.90
37412;DHT22;23278;52.110;6.050;2022-12-07T06:13:08;3.80;99.90
37412;DHT22;23278;52.110;6.050;2022-12-07T06:15:37;3.80;99.90
37412;DHT22;23278;52.110;6.050;2022-12-07T06:18:04;3.70;99.90
37412;DHT22;23278;52.110;6.050;2022-12-07T06:20:29;3.70;99.90
37412;DHT22;23278;52.110;6.050;2022-12-07T06:22:56;3.60;99.90
37412;DHT22;23278;52.110;6.050;2022-12-07T06:25:21;3.60;99.90
37412;DHT22;23278;52.110;6.050;2022-12-07T06:27:47;3.50;99.90
37412;DHT22;23278;52.110;6.050;2022-12-07T06:30:13;3.50;99.90
37412;DHT22;23278;52.110;6.050;2022-12-07T06:32:39;3.40;99.90
37412;DHT22;23278;52.110;6.050;2022-12-07T06:35:06;3.40;99.90
37412;DHT22;23278;52.110;6.050;2022-12-07T06:37:32;3.30;99.90
37412;DHT22;23278;52.110;6.050;2022-12-07T06:39:57;3.30;99.90
37412;DHT22;23278;52.110;6.050;2022-12-07T06:42:23;3.20;99.90
37412;DHT22;23278;52.110;6.050;2022-12-07T06:44:49;3.20;99.90
37412;DHT22;23278;52.110;6.050;2022-12-07T06:47:15;3.20;99.90
37412;DHT22;23278;52.110;6.050;2022-12-07T06:49:41;3.30;99.90
37412;DHT22;23278;52.110;6.050;2022-12-07T06:52:07;3.30;99.90
37412;DHT22;23278;52.110;6.050;2022-12-07T06:54:33;3.30;99.90
37412;DHT22;23278;52.110;6.050;2022-12-07T06:56:59;3.40;99.90
37412;DHT22;23278;52.110;6.050;2022-12-07T06:59:24;3.30;99.90
37412;DHT22;23278;52.110;6.050;2022-12-07T07:01:50;3.30;99.90
37412;DHT22;23278;52.110;6.050;2022-12-07T07:04:16;3.30;99.90
37412;DHT22;23278;52.110;6.050;2022-12-07T07:06:42;3.30;99.90
37412;DHT22;23278;52.110;6.050;2022-12-07T07:09:08;3.20;99.90
37412;DHT22;23278;52.110;6.050;2022-12-07T07:11:35;3.20;99.90
37412;DHT22;23278;52.110;6.050;2022-12-07T07:14:01;3.20;99.90
37412;DHT22;23278;52.110;6.050;2022-12-07T07:16:29;3.20;99.90
37412;DHT22;23278;52.110;6.050;2022-12-07T07:18:56;3.20;99.90
37412;DHT22;23278;52.110;6.050;2022-12-07T07:21:22;3.10;99.90
37412;DHT22;23278;52.110;6.050;2022-12-07T07:23:48;3.10;99.90
37412;DHT22;23278;52.110;6.050;2022-12-07T07:26:14;3.10;99.90
37412;DHT22;23278;52.110;6.050;2022-12-07T07:28:40;3.10;99.90
37412;DHT22;23278;52.110;6.050;2022-12-07T07:31:06;3.10;99.90
37412;DHT22;23278;52.110;6.050;2022-12-07T07:33:32;3.10;99.90
37412;DHT22;23278;52.110;6.050;2022-12-07T07:35:58;3.10;99.90
37412;DHT22;23278;52.110;6.050;2022-12-07T07:38:24;3.10;99.90
37412;DHT22;23278;52.110;6.050;2022-12-07T07:40:49;3.00;99.90
37412;DHT22;23278;52.110;6.050;2022-12-07T07:43:15;3.00;99.90
37412;DHT22;23278;52.110;6.050;2022-12-07T07:45:41;3.00;99.90
37412;DHT22;23278;52.110;6.050;2022-12-07T07:48:07;3.00;99.90
37412;DHT22;23278;52.110;6.050;2022-12-07T07:50:33;2.90;99.90
37412;DHT22;23278;52.110;6.050;2022-12-07T07:52:59;3.00;99.90
37412;DHT22;23278;52.110;6.050;2022-12-07T07:55:25;3.00;99.90
37412;DHT22;23278;52.110;6.050;2022-12-07T07:57:51;3.10;99.90
37412;DHT22;23278;52.110;6.050;2022-12-07T08:00:17;3.20;99.90
37412;DHT22;23278;52.110;6.050;2022-12-07T08:02:43;3.30;99.90
37412;DHT22;23278;52.110;6.050;2022-12-07T08:05:11;3.50;99.90
37412;DHT22;23278;52.110;6.050;2022-12-07T08:07:37;3.70;99.90
37412;DHT22;23278;52.110;6.050;2022-12-07T08:10:03;4.00;99.90
37412;DHT22;23278;52.110;6.050;2022-12-07T08:12:30;4.20;99.90
37412;DHT22;23278;52.110;6.050;2022-12-07T08:14:55;4.40;99.90
37412;DHT22;23278;52.110;6.050;2022-12-07T08:17:21;4.50;99.90
37412;DHT22;23278;52.110;6.050;2022-12-07T08:19:47;4.60;99.90
37412;DHT22;23278;52.110;6.050;2022-12-07T08:22:13;4.70;99.90
37412;DHT22;23278;52.110;6.050;2022-12-07T08:24:39;4.70;99.90
37412;DHT22;23278;52.110;6.050;2022-12-07T08:27:05;4.80;99.90
37412;DHT22;23278;52.110;6.050;2022-12-07T08:29:31;4.80;99.90
37412;DHT22;23278;52.110;6.050;2022-12-07T08:31:57;4.80;99.90
37412;DHT22;23278;52.110;6.050;2022-12-07T08:34:22;4.70;99.90
37412;DHT22;23278;52.110;6.050;2022-12-07T08:36:48;4.60;99.90
37412;DHT22;23278;52.110;6.050;2022-12-07T08:39:14;4.50;99.90
37412;DHT22;23278;52.110;6.050;2022-12-07T08:41:40;4.40;99.90
37412;DHT22;23278;52.110;6.050;2022-12-07T08:44:06;4.30;99.90
37412;DHT22;23278;52.110;6.050;2022-12-07T08:46:46;4.30;99.90
37412;DHT22;23278;52.110;6.050;2022-12-07T08:49:20;4.30;99.90
37412;DHT22;23278;52.110;6.050;2022-12-07T08:51:47;4.40;99.90
37412;DHT22;23278;52.110;6.050;2022-12-07T08:54:16;4.50;99.90
37412;DHT22;23278;52.110;6.050;2022-12-07T08:56:43;4.70;99.90
37412;DHT22;23278;52.110;6.050;2022-12-07T08:59:10;5.20;99.90
37412;DHT22;23278;52.110;6.050;2022-12-07T09:01:36;5.80;99.90
37412;DHT22;23278;52.110;6.050;2022-12-07T09:04:02;6.40;99.90
37412;DHT22;23278;52.110;6.050;2022-12-07T09:06:27;7.00;99.90
37412;DHT22;23278;52.110;6.050;2022-12-07T09:08:56;7.40;99.90
37412;DHT22;23278;52.110;6.050;2022-12-07T09:11:23;7.60;99.90
37412;DHT22;23278;52.110;6.050;2022-12-07T09:13:50;7.50;99.90
37412;DHT22;23278;52.110;6.050;2022-12-07T09:16:16;7.40;99.90
37412;DHT22;23278;52.110;6.050;2022-12-07T09:18:42;7.60;99.90
37412;DHT22;23278;52.110;6.050;2022-12-07T09:21:08;7.90;99.90
37412;DHT22;23278;52.110;6.050;2022-12-07T09:23:34;8.10;99.90
37412;DHT22;23278;52.110;6.050;2022-12-07T09:26:02;8.20;99.90
37412;DHT22;23278;52.110;6.050;2022-12-07T09:28:28;8.10;99.90
37412;DHT22;23278;52.110;6.050;2022-12-07T09:30:54;8.30;99.90
37412;DHT22;23278;52.110;6.050;2022-12-07T09:33:20;8.50;99.90
37412;DHT22;23278;52.110;6.050;2022-12-07T09:35:47;8.40;99.90
37412;DHT22;23278;52.110;6.050;2022-12-07T09:38:13;8.10;99.90
37412;DHT22;23278;52.110;6.050;2022-12-07T09:40:40;7.80;99.90
37412;DHT22;23278;52.110;6.050;2022-12-07T09:43:20;7.60;99.90
37412;DHT22;23278;52.110;6.050;2022-12-07T09:45:49;7.40;99.90
37412;DHT22;23278;52.110;6.050;2022-12-07T09:48:18;7.80;99.90
37412;DHT22;23278;52.110;6.050;2022-12-07T09:50:46;8.70;99.90
37412;DHT22;23278;52.110;6.050;2022-12-07T09:53:26;9.70;99.90
37412;DHT22;23278;52.110;6.050;2022-12-07T09:55:54;10.60;99.60
37412;DHT22;23278;52.110;6.050;2022-12-07T09:58:25;11.40;98.20
37412;DHT22;23278;52.110;6.050;2022-12-07T10:03:35;12.50;95.40
37412;DHT22;23278;52.110;6.050;2022-12-07T10:06:01;12.90;93.30
37412;DHT22;23278;52.110;6.050;2022-12-07T10:08:27;13.40;92.50
37412;DHT22;23278;52.110;6.050;2022-12-07T10:10:55;14.00;91.70
37412;DHT22;23278;52.110;6.050;2022-12-07T10:13:41;14.60;90.20
37412;DHT22;23278;52.110;6.050;2022-12-07T10:18:50;15.50;83.90
37412;DHT22;23278;52.110;6.050;2022-12-07T10:21:19;16.00;80.50
37412;DHT22;23278;52.110;6.050;2022-12-07T10:24:14;16.40;78.50
37412;DHT22;23278;52.110;6.050;2022-12-07T10:27:00;16.60;78.00
37412;DHT22;23278;52.110;6.050;2022-12-07T10:29:33;16.80;74.00
37412;DHT22;23278;52.110;6.050;2022-12-07T10:32:29;17.00;70.80
37412;DHT22;23278;52.110;6.050;2022-12-07T10:35:22;17.00;68.40
37412;DHT22;23278;52.110;6.050;2022-12-07T10:37:49;16.50;67.30
37412;DHT22;23278;52.110;6.050;2022-12-07T10:40:28;15.80;68.80
37412;DHT22;23278;52.110;6.050;2022-12-07T10:46:13;16.00;70.20
37412;DHT22;23278;52.110;6.050;2022-12-07T10:49:13;16.20;69.90
37412;DHT22;23278;52.110;6.050;2022-12-07T10:51:46;16.50;67.60
37412;DHT22;23278;52.110;6.050;2022-12-07T11:02:57;15.30;68.40
37412;DHT22;23278;52.110;6.050;2022-12-07T11:13:56;12.60;74.20
37412;DHT22;23278;52.110;6.050;2022-12-07T11:19:27;12.70;76.80
37412;DHT22;23278;52.110;6.050;2022-12-07T11:21:57;13.40;76.20
37412;DHT22;23278;52.110;6.050;2022-12-07T11:27:26;14.80;73.30
37412;DHT22;23278;52.110;6.050;2022-12-07T11:33:08;15.40;69.10
37412;DHT22;23278;52.110;6.050;2022-12-07T11:35:55;14.60;70.00
37412;DHT22;23278;52.110;6.050;2022-12-07T11:41:06;15.60;69.80
37412;DHT22;23278;52.110;6.050;2022-12-07T11:43:58;16.40;67.20
37412;DHT22;23278;52.110;6.050;2022-12-07T11:46:27;16.90;65.20
37412;DHT22;23278;52.110;6.050;2022-12-07T11:49:16;17.30;63.00
37412;DHT22;23278;52.110;6.050;2022-12-07T11:51:45;17.60;62.50
37412;DHT22;23278;52.110;6.050;2022-12-07T11:54:19;18.10;61.10
37412;DHT22;23278;52.110;6.050;2022-12-07T11:56:48;18.00;60.90
37412;DHT22;23278;52.110;6.050;2022-12-07T11:59:36;18.20;59.00
37412;DHT22;23278;52.110;6.050;2022-12-07T12:02:15;17.50;58.20
37412;DHT22;23278;52.110;6.050;2022-12-07T12:04:52;16.60;59.40
37412;DHT22;23278;52.110;6.050;2022-12-07T12:07:25;16.20;60.80
37412;DHT22;23278;52.110;6.050;2022-12-07T12:09:58;16.40;61.80
37412;DHT22;23278;52.110;6.050;2022-12-07T12:12:57;16.10;61.40
37412;DHT22;23278;52.110;6.050;2022-12-07T12:21:02;15.20;64.40
37412;DHT22;23278;52.110;6.050;2022-12-07T12:26:21;15.30;63.90
37412;DHT22;23278;52.110;6.050;2022-12-07T12:28:52;15.10;63.80
37412;DHT22;23278;52.110;6.050;2022-12-07T12:33:56;16.00;62.50
37412;DHT22;23278;52.110;6.050;2022-12-07T12:36:43;16.00;62.40
37412;DHT22;23278;52.110;6.050;2022-12-07T12:39:12;15.90;62.50
37412;DHT22;23278;52.110;6.050;2022-12-07T12:47:00;16.10;62.20
37412;DHT22;23278;52.110;6.050;2022-12-07T12:49:42;16.10;61.70
37412;DHT22;23278;52.110;6.050;2022-12-07T12:57:35;16.80;60.70
37412;DHT22;23278;52.110;6.050;2022-12-07T13:00:23;17.00;59.00
37412;DHT22;23278;52.110;6.050;2022-12-07T13:02:54;16.90;58.30
37412;DHT22;23278;52.110;6.050;2022-12-07T13:05:29;16.50;58.80
37412;DHT22;23278;52.110;6.050;2022-12-07T13:08:16;16.40;58.80
37412;DHT22;23278;52.110;6.050;2022-12-07T13:10:45;16.00;60.00
37412;DHT22;23278;52.110;6.050;2022-12-07T13:15:45;15.90;60.90
37412;DHT22;23278;52.110;6.050;2022-12-07T13:29:20;15.70;58.70
37412;DHT22;23278;52.110;6.050;2022-12-07T13:31:56;15.30;59.30
37412;DHT22;23278;52.110;6.050;2022-12-07T13:34:40;15.00;59.90
37412;DHT22;23278;52.110;6.050;2022-12-07T13:37:27;14.60;60.40
37412;DHT22;23278;52.110;6.050;2022-12-07T13:39:59;14.40;61.40
37412;DHT22;23278;52.110;6.050;2022-12-07T13:42:31;14.50;61.80
37412;DHT22;23278;52.110;6.050;2022-12-07T13:44:59;14.30;61.80
37412;DHT22;23278;52.110;6.050;2022-12-07T13:47:43;14.00;62.40
37412;DHT22;23278;52.110;6.050;2022-12-07T13:50:26;13.60;63.00
37412;DHT22;23278;52.110;6.050;2022-12-07T13:52:55;13.10;63.80
37412;DHT22;23278;52.110;6.050;2022-12-07T13:55:22;12.80;64.50
37412;DHT22;23278;52.110;6.050;2022-12-07T13:57:51;12.50;65.50
37412;DHT22;23278;52.110;6.050;2022-12-07T14:00:28;12.20;66.40
37412;DHT22;23278;52.110;6.050;2022-12-07T14:05:33;11.60;67.40
37412;DHT22;23278;52.110;6.050;2022-12-07T14:08:02;11.50;67.80
37412;DHT22;23278;52.110;6.050;2022-12-07T14:10:32;11.40;68.30
37412;DHT22;23278;52.110;6.050;2022-12-07T14:12:59;11.20;68.80
37412;DHT22;23278;52.110;6.050;2022-12-07T14:15:29;11.00;69.10
37412;DHT22;23278;52.110;6.050;2022-12-07T14:17:56;11.00;69.70
37412;DHT22;23278;52.110;6.050;2022-12-07T14:22:58;10.70;71.60
37412;DHT22;23278;52.110;6.050;2022-12-07T14:25:26;10.50;72.10
37412;DHT22;23278;52.110;6.050;2022-12-07T14:27:56;10.40;72.80
37412;DHT22;23278;52.110;6.050;2022-12-07T14:30:31;10.20;73.40
37412;DHT22;23278;52.110;6.050;2022-12-07T14:33:03;10.00;74.00
37412;DHT22;23278;52.110;6.050;2022-12-07T14:35:30;9.90;74.60
37412;DHT22;23278;52.110;6.050;2022-12-07T14:37:56;9.70;75.20
37412;DHT22;23278;52.110;6.050;2022-12-07T14:40:28;9.50;76.10
37412;DHT22;23278;52.110;6.050;2022-12-07T14:43:08;9.50;76.30
37412;DHT22;23278;52.110;6.050;2022-12-07T14:45:34;9.40;76.90
37412;DHT22;23278;52.110;6.050;2022-12-07T14:48:00;9.40;77.40
37412;DHT22;23278;52.110;6.050;2022-12-07T14:50:26;9.30;78.10
37412;DHT22;23278;52.110;6.050;2022-12-07T14:52:56;9.20;79.10
37412;DHT22;23278;52.110;6.050;2022-12-07T14:55:30;9.10;79.60
37412;DHT22;23278;52.110;6.050;2022-12-07T14:57:56;9.00;80.10
37412;DHT22;23278;52.110;6.050;2022-12-07T15:00:24;8.90;81.30
37412;DHT22;23278;52.110;6.050;2022-12-07T15:02:51;8.90;81.60
37412;DHT22;23278;52.110;6.050;2022-12-07T15:05:17;8.80;82.30
37412;DHT22;23278;52.110;6.050;2022-12-07T15:07:45;8.70;82.60
37412;DHT22;23278;52.110;6.050;2022-12-07T15:10:23;8.60;83.30
37412;DHT22;23278;52.110;6.050;2022-12-07T15:12:49;8.50;83.80
37412;DHT22;23278;52.110;6.050;2022-12-07T15:15:15;8.50;84.60
37412;DHT22;23278;52.110;6.050;2022-12-07T15:17:42;8.40;85.10
37412;DHT22;23278;52.110;6.050;2022-12-07T15:20:13;8.30;85.60
37412;DHT22;23278;52.110;6.050;2022-12-07T15:22:41;8.20;86.40
37412;DHT22;23278;52.110;6.050;2022-12-07T15:25:08;8.10;86.90
37412;DHT22;23278;52.110;6.050;2022-12-07T15:27:34;8.00;87.90
37412;DHT22;23278;52.110;6.050;2022-12-07T15:30:00;8.00;88.60
37412;DHT22;23278;52.110;6.050;2022-12-07T15:32:26;7.90;89.00
37412;DHT22;23278;52.110;6.050;2022-12-07T15:34:52;7.80;89.60
37412;DHT22;23278;52.110;6.050;2022-12-07T15:37:17;7.80;90.00
37412;DHT22;23278;52.110;6.050;2022-12-07T15:39:43;7.70;90.20
37412;DHT22;23278;52.110;6.050;2022-12-07T15:42:09;7.70;90.50
37412;DHT22;23278;52.110;6.050;2022-12-07T15:44:35;7.60;90.80
37412;DHT22;23278;52.110;6.050;2022-12-07T15:47:20;7.60;90.90
37412;DHT22;23278;52.110;6.050;2022-12-07T15:49:46;7.60;91.10
37412;DHT22;23278;52.110;6.050;2022-12-07T15:52:12;7.60;91.40
37412;DHT22;23278;52.110;6.050;2022-12-07T15:54:38;7.60;91.70
37412;DHT22;23278;52.110;6.050;2022-12-07T15:57:05;7.50;92.10
37412;DHT22;23278;52.110;6.050;2022-12-07T15:59:30;7.40;92.50
37412;DHT22;23278;52.110;6.050;2022-12-07T16:01:56;7.40;92.70
37412;DHT22;23278;52.110;6.050;2022-12-07T16:04:22;7.40;93.00
37412;DHT22;23278;52.110;6.050;2022-12-07T16:06:48;7.40;93.20
37412;DHT22;23278;52.110;6.050;2022-12-07T16:09:16;7.50;93.30
37412;DHT22;23278;52.110;6.050;2022-12-07T16:11:42;7.50;93.60
37412;DHT22;23278;52.110;6.050;2022-12-07T16:14:08;7.50;93.70
37412;DHT22;23278;52.110;6.050;2022-12-07T16:16:34;7.50;94.10
37412;DHT22;23278;52.110;6.050;2022-12-07T16:19:00;7.50;94.60
37412;DHT22;23278;52.110;6.050;2022-12-07T16:21:25;7.40;94.90
37412;DHT22;23278;52.110;6.050;2022-12-07T16:23:52;7.40;95.40
37412;DHT22;23278;52.110;6.050;2022-12-07T16:26:20;7.30;97.60
37412;DHT22;23278;52.110;6.050;2022-12-07T16:28:49;7.10;99.10
37412;DHT22;23278;52.110;6.050;2022-12-07T16:31:17;7.00;99.90
37412;DHT22;23278;52.110;6.050;2022-12-07T16:33:44;6.80;99.90
37412;DHT22;23278;52.110;6.050;2022-12-07T16:36:11;6.70;99.90
37412;DHT22;23278;52.110;6.050;2022-12-07T16:38:38;6.50;99.90
37412;DHT22;23278;52.110;6.050;2022-12-07T16:41:05;6.40;99.90
37412;DHT22;23278;52.110;6.050;2022-12-07T16:43:32;6.30;99.90
37412;DHT22;23278;52.110;6.050;2022-12-07T16:45:58;6.20;99.90
37412;DHT22;23278;52.110;6.050;2022-12-07T16:48:24;6.10;99.90
37412;DHT22;23278;52.110;6.050;2022-12-07T16:50:49;6.00;99.90
37412;DHT22;23278;52.110;6.050;2022-12-07T16:53:15;6.00;99.90
37412;DHT22;23278;52.110;6.050;2022-12-07T16:55:43;5.90;99.90
37412;DHT22;23278;52.110;6.050;2022-12-07T16:58:12;5.80;99.90
37412;DHT22;23278;52.110;6.050;2022-12-07T17:00:39;5.80;99.90
37412;DHT22;23278;52.110;6.050;2022-12-07T17:03:05;5.80;99.90
37412;DHT22;23278;52.110;6.050;2022-12-07T17:05:31;5.80;99.90
37412;DHT22;23278;52.110;6.050;2022-12-07T17:07:58;5.80;99.90
37412;DHT22;23278;52.110;6.050;2022-12-07T17:10:25;5.80;99.90
37412;DHT22;23278;52.110;6.050;2022-12-07T17:12:51;5.80;99.90
37412;DHT22;23278;52.110;6.050;2022-12-07T17:15:17;5.80;99.90
37412;DHT22;23278;52.110;6.050;2022-12-07T17:17:52;5.80;99.90
37412;DHT22;23278;52.110;6.050;2022-12-07T17:20:19;5.70;99.90
37412;DHT22;23278;52.110;6.050;2022-12-07T17:22:46;5.70;99.90
37412;DHT22;23278;52.110;6.050;2022-12-07T17:25:12;5.80;99.90
37412;DHT22;23278;52.110;6.050;2022-12-07T17:27:39;5.70;99.90
37412;DHT22;23278;52.110;6.050;2022-12-07T17:30:06;5.70;99.90
37412;DHT22;23278;52.110;6.050;2022-12-07T17:32:33;5.70;99.90
37412;DHT22;23278;52.110;6.050;2022-12-07T17:34:58;5.70;99.90
37412;DHT22;23278;52.110;6.050;2022-12-07T17:37:26;5.70;99.90